Time;durP1;ratioP1;P1;durP2;ratioP2;P2;SDS_P1;SDS_P2;PMS_P1;PMS_P2;Temp;Humidity;BMP_temperature;BMP_pressure;BME280_temperature;BME280_humidity;BME280_pressure;Samples;Min_cycle;Max_cycle;Signal;HPM_P1;HPM_P2
2021/03/09 00:01:08;;;;;;;42.20;35.45;;;7.70;99.90;;;;;;5051893;28;20852;-71
2021/03/09 00:03:33;;;;;;;40.33;32.10;;;7.70;99.90;;;;;;5051630;28;20506;-71
2021/03/09 00:05:59;;;;;;;36.45;30.67;;;7.70;99.90;;;;;;5049523;28;20718;-71
2021/03/09 00:08:26;;;;;;;32.38;28.35;;;7.80;99.90;;;;;;5051710;28;20730;-71
2021/03/09 00:10:52;;;;;;;35.00;29.98;;;7.80;99.90;;;;;;5050881;28;20390;-71
2021/03/09 00:13:18;;;;;;;34.90;31.13;;;7.90;99.90;;;;;;5050711;28;20497;-71
2021/03/09 00:15:44;;;;;;;33.40;29.20;;;8.00;99.90;;;;;;5050360;28;20405;-72
2021/03/09 00:18:10;;;;;;;32.42;28.90;;;7.90;99.90;;;;;;5057888;28;20393;-71
2021/03/09 00:20:36;;;;;;;36.93;31.63;;;8.00;99.90;;;;;;5051827;28;20413;-71
2021/03/09 00:23:02;;;;;;;39.65;32.72;;;8.00;99.90;;;;;;5050257;28;20765;-72
2021/03/09 00:25:29;;;;;;;34.22;29.65;;;7.80;99.90;;;;;;5048741;28;20977;-71
2021/03/09 00:27:55;;;;;;;34.47;29.80;;;7.90;99.90;;;;;;5047201;28;20742;-71
2021/03/09 00:30:21;;;;;;;40.23;33.63;;;8.10;99.90;;;;;;5049545;28;20488;-71
2021/03/09 00:32:47;;;;;;;39.20;33.40;;;8.00;99.90;;;;;;5050896;28;20432;-71
2021/03/09 00:35:13;;;;;;;34.33;29.40;;;7.90;99.90;;;;;;5048364;28;20425;-71
2021/03/09 00:37:39;;;;;;;42.93;32.60;;;7.90;99.90;;;;;;5053631;28;20404;-72
2021/03/09 00:40:07;;;;;;;39.72;34.03;;;7.90;99.90;;;;;;5048145;28;20409;-71
2021/03/09 00:42:34;;;;;;;34.10;29.83;;;7.80;99.90;;;;;;5051567;28;20397;-71
2021/03/09 00:45:00;;;;;;;36.50;30.30;;;7.80;99.90;;;;;;5050251;28;20408;-71
2021/03/09 00:47:25;;;;;;;39.72;34.17;;;7.90;99.90;;;;;;5051503;28;20506;-71
2021/03/09 00:49:51;;;;;;;39.38;34.35;;;7.90;99.90;;;;;;5050047;28;20433;-72
2021/03/09 00:52:17;;;;;;;41.92;33.45;;;7.80;99.90;;;;;;5050330;28;20920;-72
2021/03/09 00:54:43;;;;;;;36.40;31.30;;;7.80;99.90;;;;;;5049037;28;20424;-73
2021/03/09 00:57:09;;;;;;;32.30;28.75;;;7.90;99.90;;;;;;5051383;28;20446;-72
2021/03/09 00:59:35;;;;;;;33.83;29.35;;;7.90;99.90;;;;;;5051599;28;20399;-71
2021/03/09 01:02:02;;;;;;;32.95;28.38;;;8.00;99.90;;;;;;5051985;28;20432;-71
2021/03/09 01:04:27;;;;;;;35.85;31.73;;;8.00;99.90;;;;;;5055338;28;20442;-70
2021/03/09 01:06:53;;;;;;;39.10;32.72;;;8.00;99.90;;;;;;5052951;28;20920;-71
2021/03/09 01:09:19;;;;;;;37.75;32.92;;;8.00;99.90;;;;;;5055326;28;20393;-71
2021/03/09 01:11:45;;;;;;;35.75;31.75;;;8.10;99.90;;;;;;5053790;28;20826;-71
2021/03/09 01:14:11;;;;;;;36.63;30.60;;;7.90;99.90;;;;;;5053863;28;20931;-72
2021/03/09 01:16:38;;;;;;;37.17;32.13;;;8.00;99.90;;;;;;5054312;28;20389;-71
2021/03/09 01:19:04;;;;;;;36.30;31.53;;;8.00;99.90;;;;;;5052852;28;20405;-71
2021/03/09 01:21:30;;;;;;;32.53;29.02;;;8.00;99.90;;;;;;5053466;28;20433;-71
2021/03/09 01:23:55;;;;;;;30.55;27.25;;;8.00;99.90;;;;;;5054702;28;20471;-72
2021/03/09 01:26:21;;;;;;;35.08;30.77;;;8.10;99.90;;;;;;5054916;28;20734;-71
2021/03/09 01:28:47;;;;;;;40.80;34.97;;;8.10;99.90;;;;;;5053578;28;20385;-72
2021/03/09 01:31:13;;;;;;;39.85;35.53;;;8.10;99.90;;;;;;5054579;28;20492;-72
2021/03/09 01:33:40;;;;;;;38.95;33.78;;;7.90;99.90;;;;;;5053458;28;20408;-71
2021/03/09 01:36:07;;;;;;;37.10;31.65;;;7.90;99.90;;;;;;5051906;28;20405;-72
2021/03/09 01:38:33;;;;;;;43.47;34.03;;;7.80;99.90;;;;;;5052935;28;20968;-71
2021/03/09 01:40:59;;;;;;;38.77;33.07;;;7.70;99.90;;;;;;5054620;28;20504;-71
2021/03/09 01:43:25;;;;;;;35.97;32.03;;;7.60;99.90;;;;;;5054421;28;20393;-71
2021/03/09 01:45:51;;;;;;;37.83;31.20;;;7.60;99.90;;;;;;5054568;28;20876;-71
2021/03/09 01:48:21;;;;;;;36.77;30.87;;;7.60;99.90;;;;;;5054385;28;20488;-71
2021/03/09 01:50:49;;;;;;;40.42;33.13;;;7.60;99.90;;;;;;5053185;28;20390;-71
2021/03/09 01:53:15;;;;;;;37.78;31.35;;;7.60;99.90;;;;;;5054187;28;20492;-71
2021/03/09 01:55:41;;;;;;;38.80;33.53;;;7.80;99.90;;;;;;5054254;28;20429;-70
2021/03/09 01:58:12;;;;;;;36.03;30.63;;;7.70;99.90;;;;;;5054266;28;20448;-72
2021/03/09 02:00:38;;;;;;;33.63;29.10;;;7.70;99.90;;;;;;5055984;28;20448;-74
2021/03/09 02:03:05;;;;;;;33.10;29.10;;;7.80;99.90;;;;;;5072768;22;20398;-72
2021/03/09 02:05:31;;;;;;;31.63;27.67;;;7.90;99.90;;;;;;5069376;28;20949;-72
2021/03/09 02:07:58;;;;;;;32.55;28.40;;;7.90;99.90;;;;;;5073846;28;20441;-72
2021/03/09 02:10:24;;;;;;;34.30;29.67;;;8.00;99.90;;;;;;5073884;28;20387;-72
2021/03/09 02:13:01;;;;;;;33.58;29.27;;;8.00;99.90;;;;;;5073285;28;20419;-72
2021/03/09 02:15:34;;;;;;;31.40;28.00;;;8.10;99.90;;;;;;5071621;28;20383;-72
2021/03/09 02:18:07;;;;;;;35.60;31.70;;;8.00;99.90;;;;;;5059181;28;20403;-72
2021/03/09 02:21:10;;;;;;;37.47;31.08;;;7.80;99.90;;;;;;5073499;28;20457;-72
2021/03/09 02:24:14;;;;;;;35.53;30.55;;;7.60;99.90;;;;;;5067379;28;20398;-72
2021/03/09 02:26:55;;;;;;;40.75;33.45;;;7.60;99.90;;;;;;5039363;28;20396;-73
2021/03/09 02:29:48;;;;;;;33.15;28.42;;;7.50;99.90;;;;;;5073449;28;20423;-72
2021/03/09 02:32:19;;;;;;;34.85;29.67;;;7.60;99.90;;;;;;5051994;28;20454;-73
2021/03/09 02:34:47;;;;;;;33.30;29.48;;;7.70;99.90;;;;;;5055595;28;20427;-72
2021/03/09 02:37:16;;;;;;;32.28;28.17;;;7.80;99.90;;;;;;5073070;28;20438;-72
2021/03/09 02:39:45;;;;;;;34.35;28.17;;;7.80;99.90;;;;;;5072228;28;20445;-72
2021/03/09 02:42:15;;;;;;;32.10;28.00;;;7.90;99.90;;;;;;5073261;28;20453;-72
2021/03/09 02:44:41;;;;;;;35.67;29.60;;;7.80;99.90;;;;;;5071833;28;20782;-73
2021/03/09 02:47:11;;;;;;;34.60;29.60;;;7.90;99.90;;;;;;5072066;28;20399;-72
2021/03/09 02:49:42;;;;;;;36.08;31.50;;;7.90;99.90;;;;;;5071663;28;20435;-73
2021/03/09 02:52:09;;;;;;;34.30;29.50;;;7.80;99.90;;;;;;5073063;28;20396;-72
2021/03/09 02:54:38;;;;;;;35.40;30.45;;;7.80;99.90;;;;;;5054912;28;20414;-72
2021/03/09 02:57:10;;;;;;;40.15;33.63;;;7.90;99.90;;;;;;5073091;28;20445;-72
2021/03/09 02:59:37;;;;;;;37.17;32.63;;;7.80;99.90;;;;;;5072656;28;20932;-72
2021/03/09 03:02:04;;;;;;;39.20;33.10;;;7.80;99.90;;;;;;5072889;28;20762;-73
2021/03/09 03:04:32;;;;;;;42.78;34.50;;;7.70;99.90;;;;;;5072316;28;20411;-73
2021/03/09 03:06:59;;;;;;;45.60;36.75;;;7.60;99.90;;;;;;5055294;28;20456;-73
2021/03/09 03:09:26;;;;;;;41.10;35.55;;;7.50;99.90;;;;;;5072810;28;20398;-73
2021/03/09 03:11:54;;;;;;;40.03;34.53;;;7.50;99.90;;;;;;5072316;28;20918;-73
2021/03/09 03:14:21;;;;;;;38.67;32.80;;;7.50;99.90;;;;;;5060490;28;20403;-72
2021/03/09 03:16:47;;;;;;;35.05;30.40;;;7.60;99.90;;;;;;5072499;28;20390;-72
2021/03/09 03:19:14;;;;;;;35.67;31.40;;;7.50;99.90;;;;;;5071328;28;20457;-73
2021/03/09 03:21:42;;;;;;;33.15;29.55;;;7.60;99.90;;;;;;5072249;28;20411;-72
2021/03/09 03:24:09;;;;;;;35.90;31.48;;;7.70;99.90;;;;;;5075084;28;20878;-72
2021/03/09 03:26:38;;;;;;;34.97;31.27;;;7.70;99.90;;;;;;5074485;28;20388;-72
2021/03/09 03:29:06;;;;;;;38.07;32.97;;;7.80;99.90;;;;;;5072418;28;20399;-72
2021/03/09 03:31:33;;;;;;;40.92;34.35;;;7.70;99.90;;;;;;5072871;28;20406;-72
2021/03/09 03:33:58;;;;;;;39.58;34.95;;;7.60;99.90;;;;;;5072109;28;20430;-72
2021/03/09 03:36:25;;;;;;;39.67;33.03;;;7.50;99.90;;;;;;5072559;28;20427;-73
2021/03/09 03:38:55;;;;;;;37.05;31.35;;;7.50;99.90;;;;;;5053997;28;20412;-72
2021/03/09 03:41:22;;;;;;;36.70;31.63;;;7.50;99.90;;;;;;5072205;28;20415;-73
2021/03/09 03:43:48;;;;;;;33.90;28.73;;;7.60;99.90;;;;;;5071913;28;20395;-72
2021/03/09 03:46:13;;;;;;;36.58;30.75;;;7.60;99.90;;;;;;5054251;28;20396;-72
2021/03/09 03:48:39;;;;;;;36.13;31.08;;;7.70;99.90;;;;;;5054657;28;20395;-70
2021/03/09 03:51:07;;;;;;;37.88;31.67;;;7.70;99.90;;;;;;5072290;28;20386;-70
2021/03/09 03:53:46;;;;;;;37.65;30.52;;;7.70;99.90;;;;;;5072097;28;20743;-70
2021/03/09 03:56:22;;;;;;;33.10;28.92;;;7.70;99.90;;;;;;5071794;28;20388;-70
2021/03/09 03:58:50;;;;;;;32.72;28.35;;;7.70;99.90;;;;;;5054081;28;20392;-70
2021/03/09 04:01:20;;;;;;;31.67;27.50;;;7.60;99.90;;;;;;5071735;28;20429;-70
2021/03/09 04:03:50;;;;;;;32.93;28.97;;;7.50;99.90;;;;;;5071609;28;20534;-70
2021/03/09 04:06:17;;;;;;;31.13;27.70;;;7.50;99.90;;;;;;5070538;28;20399;-70
2021/03/09 04:08:44;;;;;;;33.58;29.85;;;7.50;99.90;;;;;;5071877;28;20419;-70
2021/03/09 04:11:10;;;;;;;40.10;33.05;;;;;;;;;;5071668;28;20396;-70
2021/03/09 04:13:42;;;;;;;37.38;32.20;;;7.40;99.90;;;;;;5053494;28;20403;-70
2021/03/09 04:16:09;;;;;;;40.75;34.33;;;7.00;99.90;;;;;;5071674;28;20442;-70
2021/03/09 04:18:37;;;;;;;39.90;34.63;;;6.90;99.90;;;;;;5071907;28;20387;-70
2021/03/09 04:21:04;;;;;;;44.33;36.33;;;6.80;99.90;;;;;;5053615;28;20403;-70
2021/03/09 04:23:31;;;;;;;36.72;31.10;;;6.80;99.90;;;;;;5071562;28;20474;-70
2021/03/09 04:25:59;;;;;;;35.85;30.95;;;6.80;99.90;;;;;;5071689;28;20395;-70
2021/03/09 04:28:26;;;;;;;37.08;32.10;;;7.00;99.90;;;;;;5071486;28;20777;-71
2021/03/09 04:30:53;;;;;;;37.83;32.55;;;7.10;99.90;;;;;;5071532;28;20818;-70
2021/03/09 04:33:19;;;;;;;41.50;35.50;;;7.10;99.90;;;;;;5071600;28;20396;-70
2021/03/09 04:35:45;;;;;;;41.72;34.28;;;7.10;99.90;;;;;;5071769;28;20471;-70
2021/03/09 04:38:12;;;;;;;40.22;33.95;;;7.00;99.90;;;;;;5075659;28;20387;-70
2021/03/09 04:40:38;;;;;;;41.00;34.38;;;7.10;99.90;;;;;;5057735;28;20926;-70
2021/03/09 04:43:04;;;;;;;40.40;34.90;;;7.10;99.90;;;;;;5057599;28;20490;-70
2021/03/09 04:45:30;;;;;;;42.03;33.93;;;7.10;99.90;;;;;;5075375;28;20383;-70
2021/03/09 04:48:00;;;;;;;35.85;30.83;;;7.10;99.90;;;;;;5075554;28;20474;-70
2021/03/09 04:50:27;;;;;;;35.08;29.98;;;7.20;99.90;;;;;;5059975;28;20897;-71
2021/03/09 04:52:54;;;;;;;34.80;30.90;;;7.30;99.90;;;;;;5075362;28;20425;-70
2021/03/09 04:55:21;;;;;;;34.55;30.65;;;7.30;99.90;;;;;;5075398;28;20400;-70
2021/03/09 04:57:47;;;;;;;36.85;32.20;;;7.40;99.90;;;;;;5074934;28;20743;-70
2021/03/09 05:00:15;;;;;;;37.85;33.45;;;7.50;99.90;;;;;;5061100;28;20461;-70
2021/03/09 05:02:41;;;;;;;36.53;32.17;;;7.50;99.90;;;;;;5057102;28;20407;-70
2021/03/09 05:05:10;;;;;;;35.17;31.10;;;7.50;99.90;;;;;;5074995;28;20917;-70
2021/03/09 05:07:36;;;;;;;42.08;35.47;;;7.50;99.90;;;;;;5058358;28;20894;-71
2021/03/09 05:10:04;;;;;;;37.95;33.75;;;7.40;99.90;;;;;;5058742;28;20396;-70
2021/03/09 05:12:30;;;;;;;37.17;33.08;;;7.30;99.90;;;;;;5057428;28;20395;-70
2021/03/09 05:14:55;;;;;;;41.63;34.28;;;7.30;99.90;;;;;;5055978;28;20473;-70
2021/03/09 05:17:21;;;;;;;37.40;31.77;;;7.30;99.90;;;;;;5074253;28;20379;-70
2021/03/09 05:19:47;;;;;;;34.97;30.95;;;7.30;99.90;;;;;;5074170;28;20871;-70
2021/03/09 05:22:14;;;;;;;39.47;34.78;;;7.30;99.90;;;;;;5073554;28;20412;-71
2021/03/09 05:24:40;;;;;;;40.22;35.13;;;7.40;99.90;;;;;;5060131;28;20430;-70
2021/03/09 05:27:06;;;;;;;45.45;37.50;;;7.30;99.90;;;;;;5056719;28;20431;-70
2021/03/09 05:29:32;;;;;;;44.72;38.10;;;;;;;;;;5057258;28;20392;-70
2021/03/09 05:31:59;;;;;;;47.05;40.42;;;;;;;;;;5074422;28;20384;-70
2021/03/09 05:34:25;;;;;;;43.13;37.78;;;7.10;99.90;;;;;;5056667;28;20414;-70
2021/03/09 05:36:51;;;;;;;45.75;39.03;;;6.80;99.90;;;;;;5074381;28;20388;-71
2021/03/09 05:39:17;;;;;;;45.20;37.87;;;6.80;99.90;;;;;;5074649;28;20446;-70
2021/03/09 05:41:43;;;;;;;44.58;39.03;;;6.80;99.90;;;;;;5074490;28;20408;-70
2021/03/09 05:44:09;;;;;;;45.83;39.90;;;6.80;99.90;;;;;;5074351;28;20391;-70
2021/03/09 05:46:35;;;;;;;46.58;39.42;;;6.70;99.90;;;;;;5074120;28;20905;-70
2021/03/09 05:49:02;;;;;;;47.20;40.40;;;6.70;99.90;;;;;;5072981;28;20387;-70
2021/03/09 05:51:30;;;;;;;47.72;39.67;;;6.60;99.90;;;;;;5073713;28;20740;-71
2021/03/09 05:53:56;;;;;;;51.30;41.53;;;6.60;99.90;;;;;;5055417;28;20415;-71
2021/03/09 05:56:23;;;;;;;49.05;42.33;;;6.60;99.90;;;;;;5073574;28;20391;-70
2021/03/09 05:58:50;;;;;;;49.92;40.83;;;6.60;99.90;;;;;;5073480;28;20441;-71
2021/03/09 06:01:16;;;;;;;48.50;41.38;;;6.60;99.90;;;;;;5072843;28;20470;-71
2021/03/09 06:03:42;;;;;;;50.22;41.28;;;6.60;99.90;;;;;;5073362;28;20493;-71
2021/03/09 06:06:08;;;;;;;48.30;40.60;;;6.60;99.90;;;;;;5055094;28;20433;-70
2021/03/09 06:08:34;;;;;;;51.03;42.53;;;6.80;99.90;;;;;;5072259;28;20392;-70
2021/03/09 06:11:13;;;;;;;53.78;44.15;;;6.70;99.90;;;;;;5073310;28;20403;-71
2021/03/09 06:13:40;;;;;;;51.67;42.60;;;6.70;99.90;;;;;;5054464;28;20420;-70
2021/03/09 06:16:06;;;;;;;52.63;43.63;;;6.70;99.90;;;;;;5055430;28;20407;-71
2021/03/09 06:18:32;;;;;;;54.92;44.45;;;6.70;99.90;;;;;;5055804;28;20394;-70
2021/03/09 06:21:08;;;;;;;53.90;45.10;;;6.70;99.90;;;;;;5073290;28;20408;-70
2021/03/09 06:23:35;;;;;;;54.35;45.63;;;6.70;99.90;;;;;;5073282;28;20442;-70
2021/03/09 06:26:01;;;;;;;51.53;43.00;;;6.70;99.90;;;;;;5072064;28;20399;-70
2021/03/09 06:28:30;;;;;;;51.07;43.50;;;6.80;99.90;;;;;;5054940;28;20407;-71
2021/03/09 06:30:59;;;;;;;55.45;46.20;;;6.80;99.90;;;;;;5053656;28;20410;-70
2021/03/09 06:33:31;;;;;;;50.20;43.20;;;6.80;99.90;;;;;;5055190;28;20416;-70
2021/03/09 06:36:00;;;;;;;58.50;50.50;;;6.80;99.90;;;;;;5055144;28;20479;-71
2021/03/09 06:38:27;;;;;;;57.25;48.90;;;6.80;99.90;;;;;;5059446;28;20495;-71
2021/03/09 06:41:07;;;;;;;61.22;50.50;;;6.70;99.90;;;;;;5072160;28;20415;-70
2021/03/09 06:43:34;;;;;;;56.17;48.92;;;6.70;99.90;;;;;;5058355;28;20477;-71
2021/03/09 06:46:12;;;;;;;65.07;53.45;;;6.70;99.90;;;;;;5072257;28;20396;-70
2021/03/09 06:48:39;;;;;;;58.90;50.97;;;6.80;99.90;;;;;;5053414;28;20418;-70
2021/03/09 06:51:06;;;;;;;57.00;49.75;;;6.80;99.90;;;;;;5073069;28;20402;-70
2021/03/09 06:53:32;;;;;;;51.43;45.87;;;6.80;99.90;;;;;;5070103;28;20387;-70
2021/03/09 06:55:58;;;;;;;53.17;46.20;;;6.80;99.90;;;;;;5054846;28;20403;-70
2021/03/09 06:58:29;;;;;;;54.03;47.10;;;6.90;99.90;;;;;;5055913;28;20400;-70
2021/03/09 07:01:11;;;;;;;55.88;47.42;;;7.00;99.90;;;;;;5072016;28;20443;-70
2021/03/09 07:03:38;;;;;;;57.17;49.65;;;7.00;99.90;;;;;;5060827;28;20759;-70
2021/03/09 07:06:05;;;;;;;62.33;51.17;;;7.00;99.90;;;;;;5060529;28;20732;-70
2021/03/09 07:08:31;;;;;;;62.88;49.00;;;6.90;99.90;;;;;;5072823;28;20395;-70
2021/03/09 07:10:57;;;;;;;54.40;46.08;;;7.00;99.90;;;;;;5072634;28;20859;-70
2021/03/09 07:13:25;;;;;;;54.00;47.45;;;7.10;99.90;;;;;;5072614;28;20871;-70
2021/03/09 07:15:52;;;;;;;57.25;48.08;;;;;;;;;;5072735;28;20388;-70
2021/03/09 07:18:20;;;;;;;50.97;45.35;;;;;;;;;;5072392;28;20392;-70
2021/03/09 07:20:47;;;;;;;56.10;46.85;;;;;;;;;;5072575;28;20422;-70
2021/03/09 07:23:17;;;;;;;52.33;45.53;;;;;;;;;;5072640;28;20414;-70
2021/03/09 07:25:44;;;;;;;50.55;44.40;;;;;;;;;;5072483;28;20430;-70
2021/03/09 07:29:03;;;;;;;50.58;44.65;;;7.20;99.90;;;;;;5072554;28;20391;-70
2021/03/09 07:31:32;;;;;;;50.20;44.58;;;7.40;99.90;;;;;;5072495;28;20466;-70
2021/03/09 07:33:59;;;;;;;50.95;44.17;;;7.30;99.90;;;;;;5054161;28;20696;-70
2021/03/09 07:36:28;;;;;;;55.08;46.38;;;7.30;99.90;;;;;;5072348;28;20475;-70
2021/03/09 07:38:56;;;;;;;55.40;47.70;;;7.30;99.90;;;;;;5072087;28;20407;-70
2021/03/09 07:41:22;;;;;;;55.20;46.80;;;7.30;99.90;;;;;;5072245;28;20412;-70
2021/03/09 07:43:48;;;;;;;56.83;47.58;;;7.30;99.90;;;;;;5054096;28;20892;-71
2021/03/09 07:46:14;;;;;;;58.07;47.97;;;7.40;99.90;;;;;;5072185;28;20415;-70
2021/03/09 07:48:41;;;;;;;59.05;49.47;;;7.40;99.90;;;;;;5072211;28;20414;-70
2021/03/09 07:51:07;;;;;;;58.67;50.75;;;7.40;99.90;;;;;;5053859;28;20461;-70
2021/03/09 07:53:34;;;;;;;60.67;50.00;;;7.40;99.90;;;;;;5072177;28;20980;-70
2021/03/09 07:56:13;;;;;;;59.10;50.17;;;7.30;99.90;;;;;;5053794;28;20404;-70
2021/03/09 07:58:39;;;;;;;62.95;51.53;;;7.30;99.90;;;;;;5072101;28;20537;-70
2021/03/09 08:01:06;;;;;;;62.60;51.33;;;7.20;99.90;;;;;;5071691;28;20415;-71
2021/03/09 08:03:34;;;;;;;59.67;50.78;;;7.20;99.90;;;;;;5053897;28;20728;-70
2021/03/09 08:06:02;;;;;;;61.33;52.03;;;7.20;99.90;;;;;;5071104;28;20456;-71
2021/03/09 08:08:42;;;;;;;66.97;53.22;;;7.30;99.90;;;;;;5054100;28;20486;-71
2021/03/09 08:11:24;;;;;;;65.78;53.45;;;7.30;99.90;;;;;;5068006;28;20423;-70
2021/03/09 08:14:20;;;;;;;64.43;53.50;;;7.20;99.90;;;;;;5067160;28;20418;-70
2021/03/09 08:16:47;;;;;;;66.75;55.22;;;7.20;99.90;;;;;;5071773;28;20396;-70
2021/03/09 08:19:40;;;;;;;67.33;55.03;;;7.00;99.90;;;;;;5071811;28;20388;-70
2021/03/09 08:22:07;;;;;;;68.13;55.28;;;6.90;99.90;;;;;;5072874;28;20418;-70
2021/03/09 08:24:55;;;;;;;60.20;51.92;;;6.90;99.90;;;;;;5071348;28;20404;-70
2021/03/09 08:27:41;;;;;;;67.68;57.03;;;6.90;99.90;;;;;;5053886;28;20411;-70
2021/03/09 08:30:28;;;;;;;68.03;56.20;;;6.80;99.90;;;;;;5053375;28;20428;-71
2021/03/09 08:33:09;;;;;;;68.20;56.17;;;6.90;99.90;;;;;;5071771;28;20879;-70
2021/03/09 08:35:38;;;;;;;74.20;60.17;;;6.70;99.90;;;;;;5070872;28;20533;-71
2021/03/09 08:38:22;;;;;;;74.25;59.72;;;6.70;99.90;;;;;;5071576;28;20399;-70
2021/03/09 08:41:11;;;;;;;65.10;54.70;;;6.70;99.90;;;;;;5071310;28;20411;-70
2021/03/09 08:43:39;;;;;;;70.60;57.03;;;6.90;99.90;;;;;;5071461;28;20396;-71
2021/03/09 08:46:07;;;;;;;64.03;53.72;;;6.90;99.90;;;;;;5069332;28;20398;-70
2021/03/09 08:48:45;;;;;;;213.55;138.70;;;7.00;99.90;;;;;;5071493;28;20391;-70
2021/03/09 08:51:46;;;;;;;74.05;60.13;;;7.00;99.90;;;;;;5052804;28;20799;-70
2021/03/09 08:54:27;;;;;;;74.15;59.72;;;6.90;99.90;;;;;;5053146;28;20973;-70
2021/03/09 08:56:55;;;;;;;81.65;65.90;;;6.80;99.90;;;;;;5071517;28;20391;-71
2021/03/09 08:59:22;;;;;;;81.90;64.72;;;6.80;99.90;;;;;;5071049;28;20423;-70
2021/03/09 09:01:48;;;;;;;71.60;57.97;;;6.90;99.90;;;;;;5071227;28;20408;-70
2021/03/09 09:04:15;;;;;;;76.57;62.22;;;6.90;99.90;;;;;;5070871;28;20435;-71
2021/03/09 09:06:41;;;;;;;64.72;54.40;;;6.90;99.90;;;;;;5071293;28;20428;-70
2021/03/09 09:09:07;;;;;;;67.38;54.88;;;7.00;99.90;;;;;;5053256;28;20461;-70
2021/03/09 09:11:33;;;;;;;64.38;52.95;;;7.10;99.90;;;;;;5070865;28;20439;-71
2021/03/09 09:14:14;;;;;;;65.70;55.53;;;7.10;99.90;;;;;;5055375;28;20431;-70
2021/03/09 09:16:41;;;;;;;63.50;53.33;;;7.10;99.90;;;;;;5071115;28;20388;-70
2021/03/09 09:19:07;;;;;;;61.70;52.15;;;7.20;99.90;;;;;;5073591;28;20468;-70
2021/03/09 09:21:43;;;;;;;65.70;55.03;;;7.30;99.90;;;;;;5071024;28;20443;-71
2021/03/09 09:24:16;;;;;;;65.80;53.63;;;7.20;99.90;;;;;;5067223;28;20483;-70
2021/03/09 09:26:42;;;;;;;75.30;61.20;;;7.30;99.90;;;;;;5074802;28;20866;-71
2021/03/09 09:29:08;;;;;;;103.53;84.13;;;7.20;99.90;;;;;;5066137;28;20420;-71
2021/03/09 09:31:35;;;;;;;192.57;141.60;;;7.10;99.90;;;;;;5074917;28;21002;-71
2021/03/09 09:34:02;;;;;;;71.93;60.53;;;7.00;99.90;;;;;;5074037;28;20407;-70
2021/03/09 09:36:28;;;;;;;66.13;55.73;;;7.10;99.90;;;;;;5068125;28;20938;-70
2021/03/09 09:38:56;;;;;;;68.05;55.85;;;7.10;99.90;;;;;;5056544;28;20400;-70
2021/03/09 09:41:22;;;;;;;73.50;61.07;;;7.20;99.90;;;;;;5074518;28;20408;-70
2021/03/09 09:43:49;;;;;;;64.30;54.22;;;7.20;99.90;;;;;;5074888;28;20384;-70
2021/03/09 09:46:19;;;;;;;71.20;57.85;;;7.20;99.90;;;;;;5074521;28;20388;-70
2021/03/09 09:48:46;;;;;;;73.80;59.80;;;7.30;99.90;;;;;;5055970;28;20810;-70
2021/03/09 09:51:14;;;;;;;69.80;57.73;;;7.20;99.90;;;;;;5074348;28;20476;-70
2021/03/09 09:53:42;;;;;;;77.70;62.88;;;7.20;99.90;;;;;;5056409;28;20404;-70
2021/03/09 09:56:10;;;;;;;67.25;57.53;;;7.30;99.90;;;;;;5074041;28;20821;-70
2021/03/09 09:58:44;;;;;;;69.82;57.83;;;7.30;99.90;;;;;;5074277;28;20391;-70
2021/03/09 10:01:10;;;;;;;64.43;54.28;;;;;;;;;;5073866;28;20415;-70
2021/03/09 10:03:50;;;;;;;64.35;56.03;;;;;;;;;;5073906;28;20407;-70
2021/03/09 10:06:17;;;;;;;63.60;54.40;;;;;;;;;;5072376;28;20495;-70
2021/03/09 10:08:44;;;;;;;70.75;56.78;;;;;;;;;;5074128;28;20445;-70
2021/03/09 10:11:10;;;;;;;63.40;53.22;;;;;;;;;;5055978;28;20407;-70
2021/03/09 10:13:37;;;;;;;58.75;51.00;;;;;;;;;;5073903;28;20400;-71
2021/03/09 10:16:03;;;;;;;66.53;55.22;;;;;;;;;;5074118;28;20396;-70
2021/03/09 10:18:30;;;;;;;66.75;55.35;;;;;;;;;;5055577;28;20403;-70
2021/03/09 10:21:04;;;;;;;350.67;205.38;;;;;;;;;;5073794;28;20420;-70
2021/03/09 10:23:31;;;;;;;302.00;181.27;;;;;;;;;;5073670;28;20453;-70
2021/03/09 10:26:01;;;;;;;66.85;56.08;;;;;;;;;;5055814;28;20415;-71
2021/03/09 10:28:27;;;;;;;76.63;60.20;;;;;;;;;;5079847;28;20924;-71
2021/03/09 10:30:54;;;;;;;63.97;53.80;;;;;;;;;;5073625;28;20392;-70
2021/03/09 10:33:20;;;;;;;58.55;51.53;;;;;;;;;;5055617;28;20403;-70
2021/03/09 10:36:04;;;;;;;58.03;50.35;;;7.30;99.90;;;;;;5073042;28;20875;-71
2021/03/09 10:38:31;;;;;;;50.55;44.95;;;;;;;;;;5073316;28;20399;-71
2021/03/09 10:40:57;;;;;;;58.95;51.25;;;;;;;;;;5073355;28;20459;-70
2021/03/09 10:43:42;;;;;;;58.10;50.75;;;;;;;;;;5073513;28;20528;-70
2021/03/09 10:46:09;;;;;;;58.22;50.63;;;;;;;;;;5072485;28;20399;-70
2021/03/09 10:48:35;;;;;;;58.13;49.30;;;;;;;;;;5073310;28;20445;-70
2021/03/09 10:51:02;;;;;;;54.95;48.20;;;;;;;;;;5055439;28;20753;-70
2021/03/09 10:53:29;;;;;;;61.60;52.75;;;;;;;;;;5073220;28;20890;-71
2021/03/09 10:55:55;;;;;;;59.05;49.67;;;;;;;;;;5073045;28;20762;-71
2021/03/09 10:58:21;;;;;;;56.30;49.53;;;;;;;;;;5073155;28;20465;-70
2021/03/09 11:00:48;;;;;;;55.80;47.35;;;;;;;;;;5054813;28;20410;-71
2021/03/09 11:03:14;;;;;;;52.93;46.37;;;;;;;;;;5054895;28;20816;-71
2021/03/09 11:05:40;;;;;;;48.08;42.42;;;;;;;;;;5073096;28;20387;-70
2021/03/09 11:08:06;;;;;;;55.30;47.20;;;;;;;;;;5072619;28;20403;-70
2021/03/09 11:10:33;;;;;;;51.20;44.63;;;;;;;;;;5072911;28;20403;-70
2021/03/09 11:13:00;;;;;;;50.92;44.08;;;;;;;;;;5072628;28;20403;-71
2021/03/09 11:15:26;;;;;;;37.97;33.88;;;;;;;;;;5072444;28;20889;-70
2021/03/09 11:17:52;;;;;;;36.25;30.35;;;;;;;;;;5072694;28;20404;-70
2021/03/09 11:20:18;;;;;;;37.50;33.00;;;;;;;;;;5072326;28;20424;-70
2021/03/09 11:22:45;;;;;;;38.00;32.03;;;;;;;;;;5072600;28;20420;-70
2021/03/09 11:25:11;;;;;;;41.40;36.90;;;;;;;;;;5072377;28;20486;-71
2021/03/09 11:27:38;;;;;;;39.35;35.00;;;;;;;;;;5072504;28;20388;-70
2021/03/09 11:30:06;;;;;;;41.13;36.42;;;;;;;;;;5072285;28;20403;-71
2021/03/09 11:32:32;;;;;;;39.25;35.05;;;;;;;;;;5072383;28;20392;-70
2021/03/09 11:34:58;;;;;;;41.40;36.00;;;;;;;;;;5072398;28;20396;-71
2021/03/09 11:37:24;;;;;;;39.47;34.85;;;;;;;;;;5072081;28;20388;-71
2021/03/09 11:39:51;;;;;;;39.50;34.92;;;9.10;99.90;;;;;;5072399;28;20868;-71
2021/03/09 11:42:17;;;;;;;41.65;35.47;;;;;;;;;;5055825;28;20428;-71
2021/03/09 11:44:44;;;;;;;41.85;33.70;;;;;;;;;;5071201;28;20746;-71
2021/03/09 11:47:10;;;;;;;42.28;37.30;;;11.10;99.90;;;;;;5052367;28;20937;-71
2021/03/09 11:49:36;;;;;;;39.58;35.13;;;11.10;96.10;;;;;;5070388;28;20380;-71
2021/03/09 11:52:03;;;;;;;41.10;35.30;;;11.20;96.10;;;;;;5053118;28;20430;-71
2021/03/09 11:54:28;;;;;;;39.85;35.03;;;11.40;95.00;;;;;;5053462;28;20499;-71
2021/03/09 11:56:54;;;;;;;38.78;33.22;;;11.50;94.90;;;;;;5070778;28;20962;-71
2021/03/09 11:59:20;;;;;;;38.03;33.92;;;11.40;94.80;;;;;;5070835;28;20435;-71
2021/03/09 12:01:47;;;;;;;36.25;32.28;;;11.40;94.90;;;;;;5071049;28;20419;-71
2021/03/09 12:04:13;;;;;;;35.78;31.80;;;11.40;94.80;;;;;;5070914;28;20438;-71
2021/03/09 12:06:39;;;;;;;39.17;33.50;;;11.30;95.80;;;;;;5071087;28;20419;-71
2021/03/09 12:09:06;;;;;;;39.90;35.67;;;11.20;94.90;;;;;;5071170;28;20392;-71
2021/03/09 12:11:32;;;;;;;40.00;35.63;;;11.20;94.50;;;;;;5070863;28;20386;-71
2021/03/09 12:13:58;;;;;;;40.13;35.03;;;11.20;95.20;;;;;;5053406;28;20747;-71
2021/03/09 12:16:24;;;;;;;37.40;33.15;;;11.50;94.30;;;;;;5054014;28;20395;-71
2021/03/09 12:18:50;;;;;;;38.33;34.13;;;11.50;93.90;;;;;;5070547;28;20915;-71
2021/03/09 12:21:17;;;;;;;38.75;34.25;;;11.70;93.60;;;;;;5070759;28;20914;-71
2021/03/09 12:23:42;;;;;;;40.83;35.43;;;11.90;93.40;;;;;;5070594;28;20452;-71
2021/03/09 12:26:09;;;;;;;40.70;35.20;;;12.00;92.70;;;;;;5070331;28;20818;-71
2021/03/09 12:28:35;;;;;;;42.53;37.38;;;11.90;93.30;;;;;;5070687;28;20415;-71
2021/03/09 12:31:02;;;;;;;39.60;34.53;;;11.40;93.60;;;;;;5070748;28;20419;-71
2021/03/09 12:33:28;;;;;;;38.38;33.35;;;11.30;93.70;;;;;;5070634;28;20391;-71
2021/03/09 12:35:55;;;;;;;39.90;34.40;;;11.40;93.80;;;;;;5070703;28;20414;-71
2021/03/09 12:38:21;;;;;;;42.70;36.70;;;11.60;93.00;;;;;;5054924;28;20415;-71
2021/03/09 12:40:47;;;;;;;37.03;32.80;;;11.70;93.00;;;;;;5070005;28;20391;-71
2021/03/09 12:43:13;;;;;;;36.55;32.17;;;11.50;93.10;;;;;;5070451;28;20387;-71
2021/03/09 12:45:39;;;;;;;43.85;37.22;;;11.50;93.40;;;;;;5069853;28;20395;-71
2021/03/09 12:48:06;;;;;;;39.45;35.22;;;11.50;92.90;;;;;;5070477;28;20394;-71
2021/03/09 12:50:32;;;;;;;41.55;36.97;;;11.50;92.30;;;;;;5069990;28;20425;-71
2021/03/09 12:52:59;;;;;;;40.87;35.50;;;11.40;92.70;;;;;;5069915;28;20716;-71
2021/03/09 12:55:25;;;;;;;40.85;36.42;;;11.40;92.80;;;;;;5070152;28;20486;-71
2021/03/09 12:57:51;;;;;;;39.05;34.80;;;11.70;92.10;;;;;;5072619;28;20886;-71